Time;durP1;ratioP1;P1;durP2;ratioP2;P2;SDS_P1;SDS_P2;PMS_P1;PMS_P2;Temp;Humidity;BMP_temperature;BMP_pressure;BME280_temperature;BME280_humidity;BME280_pressure;Samples;Min_cycle;Max_cycle;Signal;HPM_P1;HPM_P2
2021/03/20 00:02:07;;;;;;;8.30;4.67;;;-0.70;99.90;;;;;;4860011;29;20833;-89
2021/03/20 00:04:33;;;;;;;6.40;4.40;;;-0.70;99.90;;;;;;4857048;29;20193;-90
2021/03/20 00:06:59;;;;;;;7.73;4.70;;;-0.80;99.90;;;;;;4857939;29;20219;-91
2021/03/20 00:09:26;;;;;;;6.10;5.40;;;-0.90;99.90;;;;;;4859818;29;20185;-90
2021/03/20 00:11:54;;;;;;;6.67;5.53;;;-0.80;99.90;;;;;;4858452;29;20618;-90
2021/03/20 00:14:22;;;;;;;7.17;5.10;;;-0.80;99.90;;;;;;4861137;29;20480;-91
2021/03/20 00:16:49;;;;;;;6.07;4.93;;;-0.70;99.90;;;;;;4863571;29;20449;-90
2021/03/20 00:19:15;;;;;;;5.07;4.57;;;-0.70;99.90;;;;;;4857565;29;20544;-90
2021/03/20 00:21:41;;;;;;;5.40;4.70;;;-0.60;99.90;;;;;;4856804;29;20477;-90
2021/03/20 00:24:06;;;;;;;6.50;5.07;;;-0.60;99.90;;;;;;4861181;29;21130;-89
2021/03/20 00:26:34;;;;;;;6.07;4.93;;;-0.60;99.90;;;;;;4857072;29;20279;-89
2021/03/20 00:28:59;;;;;;;6.83;5.07;;;-0.60;99.90;;;;;;4868709;29;20814;-89
2021/03/20 00:31:25;;;;;;;6.07;4.80;;;-0.70;99.90;;;;;;4874626;29;20446;-88
2021/03/20 00:33:51;;;;;;;7.00;5.50;;;-0.60;99.90;;;;;;4855291;29;20194;-89
2021/03/20 00:36:18;;;;;;;7.10;5.00;;;-0.60;99.90;;;;;;4856075;29;20643;-89
2021/03/20 00:38:43;;;;;;;6.83;5.10;;;-0.50;99.90;;;;;;4859421;29;20201;-90
2021/03/20 00:41:10;;;;;;;6.93;5.07;;;-0.50;99.90;;;;;;4860423;29;20459;-89
2021/03/20 00:43:37;;;;;;;8.60;5.93;;;-0.70;99.90;;;;;;4861229;29;20607;-89
2021/03/20 00:46:04;;;;;;;10.80;6.13;;;-0.70;99.90;;;;;;4859710;29;20463;-88
2021/03/20 00:48:32;;;;;;;7.73;6.10;;;-0.80;99.90;;;;;;4861479;29;20932;-89
2021/03/20 00:50:59;;;;;;;8.27;5.70;;;-0.80;99.90;;;;;;4851782;29;20576;-88
2021/03/20 00:53:25;;;;;;;6.77;5.07;;;-0.90;99.90;;;;;;4855880;29;21096;-88
2021/03/20 00:55:52;;;;;;;6.53;5.20;;;-0.90;99.90;;;;;;4857054;29;20493;-89
2021/03/20 00:58:26;;;;;;;6.50;5.27;;;-1.00;99.90;;;;;;4857680;29;20534;-88
2021/03/20 01:00:55;;;;;;;6.27;4.90;;;-1.00;99.90;;;;;;4858854;29;20461;-87
2021/03/20 01:03:21;;;;;;;7.55;5.82;;;-1.00;99.90;;;;;;4855565;29;21006;-87
2021/03/20 01:05:47;;;;;;;8.30;5.43;;;-0.90;99.90;;;;;;4858424;29;20212;-89
2021/03/20 01:08:13;;;;;;;10.70;5.80;;;-1.00;99.90;;;;;;4855858;29;20453;-88
2021/03/20 01:10:40;;;;;;;8.90;5.60;;;-1.10;99.90;;;;;;4860231;29;20201;-88
2021/03/20 01:13:07;;;;;;;7.00;4.63;;;-1.00;99.90;;;;;;4859360;29;21315;-88
2021/03/20 01:15:33;;;;;;;7.80;5.00;;;-0.80;99.90;;;;;;4872522;29;20536;-88
2021/03/20 01:18:00;;;;;;;5.97;5.13;;;-0.70;99.90;;;;;;4862696;29;20956;-88
2021/03/20 01:20:25;;;;;;;6.20;5.03;;;-0.70;99.90;;;;;;4858886;29;20528;-88
2021/03/20 01:22:55;;;;;;;9.13;6.33;;;-0.50;99.90;;;;;;4853862;29;20457;-88
2021/03/20 01:25:20;;;;;;;9.33;6.20;;;-0.40;99.90;;;;;;4872341;29;20476;-87
2021/03/20 01:27:51;;;;;;;9.33;6.50;;;-0.30;99.90;;;;;;4857474;29;20457;-87
2021/03/20 01:30:22;;;;;;;7.53;5.57;;;-0.20;99.90;;;;;;4854083;29;20668;-89
2021/03/20 01:32:48;;;;;;;8.20;5.20;;;-0.10;99.90;;;;;;4879856;29;23108;-89
2021/03/20 01:35:14;;;;;;;7.70;5.47;;;0.00;99.90;;;;;;4875689;29;20477;-89
2021/03/20 01:37:40;;;;;;;7.10;5.50;;;0.10;99.90;;;;;;4857277;29;20344;-89
2021/03/20 01:40:08;;;;;;;6.90;6.10;;;0.10;99.90;;;;;;4856491;29;20465;-88
2021/03/20 01:42:33;;;;;;;9.37;6.70;;;0.20;99.90;;;;;;4856418;29;20669;-89
2021/03/20 01:45:24;;;;;;;6.40;5.77;;;0.20;99.90;;;;;;4875465;29;20455;-89
2021/03/20 01:47:56;;;;;;;7.70;5.83;;;0.20;99.90;;;;;;4856438;29;20895;-89
2021/03/20 01:50:52;;;;;;;8.80;6.10;;;0.20;99.90;;;;;;4856404;29;20452;-89
2021/03/20 01:53:39;;;;;;;6.50;5.80;;;0.10;99.90;;;;;;4870401;29;20460;-89
2021/03/20 01:56:15;;;;;;;6.07;4.80;;;0.00;99.90;;;;;;4856180;29;20929;-90
2021/03/20 01:58:42;;;;;;;7.90;5.30;;;-0.10;99.90;;;;;;4858177;29;20496;-89
2021/03/20 02:01:25;;;;;;;5.63;4.97;;;-0.20;99.90;;;;;;4856869;29;20477;-89
2021/03/20 02:03:55;;;;;;;6.23;4.87;;;-0.10;99.90;;;;;;4857310;29;20465;-89
2021/03/20 02:06:22;;;;;;;7.77;5.50;;;-0.10;99.90;;;;;;4860301;29;20455;-88
2021/03/20 02:08:49;;;;;;;6.20;5.03;;;-0.10;99.90;;;;;;4861557;29;20467;-88
2021/03/20 02:11:48;;;;;;;6.40;5.00;;;-0.20;99.90;;;;;;4860802;29;20546;-88
2021/03/20 02:14:37;;;;;;;6.43;4.90;;;-0.20;99.90;;;;;;4858616;29;20452;-87
2021/03/20 02:17:19;;;;;;;6.87;5.87;;;-0.20;99.90;;;;;;4874712;29;20527;-89
2021/03/20 02:19:57;;;;;;;8.80;6.17;;;-0.20;99.90;;;;;;4859777;29;20445;-89
2021/03/20 02:22:44;;;;;;;8.33;5.97;;;-0.20;99.90;;;;;;4875112;29;20465;-90
2021/03/20 02:25:52;;;;;;;8.50;6.70;;;-0.10;99.90;;;;;;4875365;29;20473;-89
2021/03/20 02:28:48;;;;;;;9.97;5.73;;;-0.10;99.90;;;;;;4857782;29;20547;-89
2021/03/20 02:31:29;;;;;;;8.50;7.07;;;0.00;99.90;;;;;;4860520;29;20470;-89
2021/03/20 02:34:19;;;;;;;8.70;6.30;;;0.10;99.90;;;;;;4858084;29;20560;-89
2021/03/20 02:37:09;;;;;;;8.73;6.47;;;0.10;99.90;;;;;;4859202;29;20461;-89
2021/03/20 02:39:49;;;;;;;7.87;5.83;;;0.10;99.90;;;;;;4861098;29;21815;-89
2021/03/20 02:42:42;;;;;;;9.00;6.50;;;0.10;99.90;;;;;;4858758;29;20476;-89
2021/03/20 02:45:40;;;;;;;9.13;5.77;;;0.20;99.90;;;;;;4857120;29;20553;-90
2021/03/20 02:48:09;;;;;;;8.83;6.70;;;0.30;99.90;;;;;;4861344;29;20453;-90
2021/03/20 02:50:47;;;;;;;5.77;4.90;;;0.40;99.90;;;;;;4860465;29;20463;-89
2021/03/20 02:53:25;;;;;;;8.00;6.00;;;0.40;99.90;;;;;;4860369;29;20522;-89
2021/03/20 02:55:57;;;;;;;10.10;6.50;;;0.50;99.90;;;;;;4859765;29;20550;-89
2021/03/20 02:58:32;;;;;;;8.50;6.20;;;0.50;99.90;;;;;;4875995;29;20536;-89
2021/03/20 03:01:03;;;;;;;9.43;6.87;;;0.50;99.90;;;;;;4862949;29;20767;-89
2021/03/20 03:03:33;;;;;;;8.90;5.97;;;0.50;99.90;;;;;;4858968;29;20456;-90
2021/03/20 03:06:31;;;;;;;7.50;5.60;;;0.60;99.90;;;;;;4860556;29;20804;-89
2021/03/20 03:09:12;;;;;;;6.23;5.20;;;0.60;99.90;;;;;;4854613;29;20450;-89
2021/03/20 03:11:55;;;;;;;7.80;5.97;;;0.60;99.90;;;;;;4863619;29;20815;-89
2021/03/20 03:15:03;;;;;;;8.37;5.30;;;0.60;99.90;;;;;;4859130;29;20839;-88
2021/03/20 03:17:32;;;;;;;7.60;6.00;;;0.60;99.90;;;;;;4784263;29;20456;-90
2021/03/20 03:20:07;;;;;;;8.63;5.43;;;0.60;99.90;;;;;;4848929;29;20555;-89
2021/03/20 03:22:54;;;;;;;8.97;5.93;;;0.60;99.90;;;;;;4855678;29;20452;-89
2021/03/20 03:25:24;;;;;;;6.00;5.40;;;0.60;99.90;;;;;;4876182;29;20563;-90
2021/03/20 03:27:55;;;;;;;6.40;5.23;;;0.60;99.90;;;;;;4860020;29;20453;-89
2021/03/20 03:30:24;;;;;;;7.43;5.67;;;0.60;99.90;;;;;;4862282;29;20468;-89
2021/03/20 03:32:55;;;;;;;7.67;5.70;;;0.70;99.90;;;;;;4859774;29;20446;-91
2021/03/20 03:35:41;;;;;;;8.23;5.40;;;0.70;99.90;;;;;;4863326;29;20501;-90
2021/03/20 03:38:55;;;;;;;9.57;7.07;;;0.70;99.90;;;;;;4859051;29;21050;-88
2021/03/20 03:41:26;;;;;;;8.37;5.80;;;0.70;99.90;;;;;;4850162;29;20461;-89
2021/03/20 03:43:53;;;;;;;8.80;6.20;;;0.80;99.90;;;;;;4872780;29;20824;-89
2021/03/20 03:46:30;;;;;;;6.87;5.77;;;0.90;99.90;;;;;;4860101;29;20462;-88
2021/03/20 03:48:59;;;;;;;8.07;6.50;;;0.80;99.90;;;;;;4861214;29;20449;-89
2021/03/20 03:51:26;;;;;;;7.83;6.40;;;0.70;99.90;;;;;;4857634;29;20503;-89
2021/03/20 03:53:53;;;;;;;7.90;7.10;;;0.80;99.90;;;;;;4862896;29;20444;-88
2021/03/20 03:56:36;;;;;;;7.30;6.50;;;0.70;99.90;;;;;;4856328;29;20546;-87
2021/03/20 03:59:16;;;;;;;8.93;6.50;;;0.70;99.90;;;;;;4872212;29;20457;-89
2021/03/20 04:01:59;;;;;;;8.47;6.70;;;0.70;99.90;;;;;;4857165;29;20517;-90
2021/03/20 04:04:48;;;;;;;11.10;6.97;;;0.70;99.90;;;;;;4854416;29;20634;-89
2021/03/20 04:07:31;;;;;;;9.77;6.80;;;0.70;99.90;;;;;;4859898;29;20452;-89
2021/03/20 04:10:21;;;;;;;10.10;6.90;;;0.70;99.90;;;;;;4861392;29;20525;-90
2021/03/20 04:13:17;;;;;;;15.23;7.40;;;0.80;99.90;;;;;;4861288;29;20509;-89
2021/03/20 04:15:59;;;;;;;9.00;6.57;;;0.70;99.90;;;;;;4860975;29;20568;-88
2021/03/20 04:19:01;;;;;;;10.60;7.23;;;0.70;99.90;;;;;;4860123;29;20453;-89
2021/03/20 04:22:06;;;;;;;9.10;7.20;;;0.70;99.90;;;;;;4857909;29;20497;-90
2021/03/20 04:24:55;;;;;;;9.00;6.67;;;0.60;99.90;;;;;;4822448;29;20463;-90
2021/03/20 04:27:32;;;;;;;8.87;6.67;;;0.60;99.90;;;;;;4874779;29;20975;-90
2021/03/20 04:30:15;;;;;;;9.97;6.73;;;0.70;99.90;;;;;;4857264;29;21102;-90
2021/03/20 04:32:44;;;;;;;12.23;6.70;;;0.70;99.90;;;;;;4859921;29;20823;-90
2021/03/20 04:35:14;;;;;;;8.33;6.43;;;0.60;99.90;;;;;;4873292;29;20520;-90
2021/03/20 04:37:44;;;;;;;7.83;6.40;;;0.60;99.90;;;;;;4862527;29;20536;-90
2021/03/20 04:40:25;;;;;;;8.50;6.87;;;0.60;99.90;;;;;;4860251;29;20594;-89
2021/03/20 04:42:51;;;;;;;8.03;5.80;;;0.50;99.90;;;;;;4861680;29;20476;-89
2021/03/20 04:45:31;;;;;;;7.90;6.50;;;0.40;99.90;;;;;;4870810;29;20686;-89
2021/03/20 04:48:04;;;;;;;6.60;5.43;;;0.40;99.90;;;;;;4860188;29;20468;-89
2021/03/20 04:50:32;;;;;;;7.27;5.40;;;0.40;99.90;;;;;;4859532;29;20449;-89
2021/03/20 04:52:59;;;;;;;7.50;5.77;;;0.50;99.90;;;;;;4857617;29;20813;-89
2021/03/20 04:55:27;;;;;;;7.20;5.87;;;0.40;99.90;;;;;;4870313;29;21235;-90
2021/03/20 04:58:02;;;;;;;8.13;6.83;;;0.50;99.90;;;;;;4861443;29;20461;-90
2021/03/20 05:00:39;;;;;;;9.80;6.60;;;0.40;99.90;;;;;;4857180;29;20671;-89
2021/03/20 05:03:28;;;;;;;7.83;6.53;;;0.40;99.90;;;;;;4870330;29;20461;-90
2021/03/20 05:06:07;;;;;;;7.17;5.80;;;0.40;99.90;;;;;;4859689;29;20479;-91
2021/03/20 05:08:52;;;;;;;8.87;5.77;;;0.30;99.90;;;;;;4871130;29;20808;-90
2021/03/20 05:11:20;;;;;;;7.10;5.50;;;0.30;99.90;;;;;;4854614;29;20442;-90
2021/03/20 05:13:57;;;;;;;8.57;6.00;;;0.40;99.90;;;;;;4858799;29;20820;-90
2021/03/20 05:16:40;;;;;;;7.30;5.90;;;0.40;99.90;;;;;;4856561;29;20599;-89
2021/03/20 05:19:08;;;;;;;6.80;5.87;;;0.40;99.90;;;;;;4858083;29;20806;-88
2021/03/20 05:21:40;;;;;;;8.60;6.47;;;0.40;99.90;;;;;;4858545;29;20457;-89
2021/03/20 05:24:07;;;;;;;10.60;6.70;;;0.40;99.90;;;;;;4859358;29;20457;-89
2021/03/20 05:26:36;;;;;;;6.53;5.70;;;0.40;99.90;;;;;;4860225;29;20927;-89
2021/03/20 05:29:02;;;;;;;7.40;5.63;;;0.40;99.90;;;;;;4871687;29;20685;-89
2021/03/20 05:31:31;;;;;;;7.50;5.90;;;0.40;99.90;;;;;;4858565;29;20638;-89
2021/03/20 05:33:57;;;;;;;7.33;6.30;;;0.30;99.90;;;;;;4859765;29;20631;-89
2021/03/20 05:36:24;;;;;;;6.30;5.70;;;0.20;99.90;;;;;;4873186;29;20543;-89
2021/03/20 05:38:50;;;;;;;7.67;6.50;;;0.10;99.90;;;;;;4861995;29;20449;-90
2021/03/20 05:41:42;;;;;;;8.20;6.43;;;0.10;99.90;;;;;;4861036;29;20472;-88
2021/03/20 05:44:43;;;;;;;8.00;6.10;;;0.20;99.90;;;;;;4860220;29;20558;-88
2021/03/20 05:47:20;;;;;;;8.00;5.77;;;0.20;99.90;;;;;;4862375;29;20461;-89
2021/03/20 05:50:17;;;;;;;6.30;5.70;;;0.20;99.90;;;;;;4862204;29;20453;-89
2021/03/20 05:52:51;;;;;;;6.93;6.13;;;0.20;99.90;;;;;;4874387;29;20500;-89
2021/03/20 05:55:42;;;;;;;6.37;5.60;;;0.20;99.90;;;;;;4871477;29;21167;-88
2021/03/20 05:58:36;;;;;;;8.77;7.10;;;0.20;99.90;;;;;;4859172;29;20453;-88
2021/03/20 06:01:14;;;;;;;10.43;7.87;;;0.10;99.90;;;;;;4858776;29;20472;-89
2021/03/20 06:03:51;;;;;;;9.00;6.90;;;0.10;99.90;;;;;;4877139;29;20446;-88
2021/03/20 06:06:55;;;;;;;9.00;7.83;;;0.10;99.90;;;;;;4859381;29;20459;-88
2021/03/20 06:10:09;;;;;;;7.20;6.40;;;0.30;99.90;;;;;;4878520;29;20455;-88
2021/03/20 06:13:08;;;;;;;9.43;7.13;;;0.50;99.90;;;;;;4810066;29;20464;-88
2021/03/20 06:15:41;;;;;;;8.07;7.00;;;0.60;99.90;;;;;;4863608;29;20580;-88
2021/03/20 06:18:25;;;;;;;8.53;7.63;;;0.60;99.90;;;;;;4860074;29;20453;-88
2021/03/20 06:20:56;;;;;;;7.90;6.50;;;0.60;99.90;;;;;;4873189;29;20450;-87
2021/03/20 06:24:02;;;;;;;6.23;5.60;;;0.80;99.90;;;;;;4876906;29;20497;-90
2021/03/20 06:26:34;;;;;;;8.33;6.23;;;1.00;99.90;;;;;;4860843;29;20772;-88
2021/03/20 06:29:15;;;;;;;7.20;6.33;;;1.20;99.90;;;;;;4861345;29;20571;-90
2021/03/20 06:31:46;;;;;;;8.80;5.83;;;1.30;99.90;;;;;;4861619;29;20453;-89
2021/03/20 06:34:31;;;;;;;6.63;5.77;;;1.30;99.90;;;;;;4862250;29;20512;-85
2021/03/20 06:37:31;;;;;;;5.50;4.57;;;1.40;99.90;;;;;;4859747;29;20454;-88
2021/03/20 06:40:10;;;;;;;4.63;4.23;;;1.30;99.90;;;;;;4819151;29;20450;-87
2021/03/20 06:42:37;;;;;;;5.17;4.60;;;1.30;99.90;;;;;;4860977;29;20449;-87
2021/03/20 06:45:16;;;;;;;5.10;4.60;;;1.00;99.90;;;;;;4860625;29;20453;-87
2021/03/20 06:47:46;;;;;;;5.23;4.33;;;1.10;99.90;;;;;;4872305;29;20461;-86
2021/03/20 06:50:17;;;;;;;6.20;4.80;;;1.10;99.90;;;;;;4861024;29;20580;-86
2021/03/20 06:52:46;;;;;;;5.83;4.87;;;1.20;99.90;;;;;;4876730;29;20596;-86
2021/03/20 06:55:34;;;;;;;4.87;4.23;;;1.30;99.90;;;;;;4860096;29;20497;-84
2021/03/20 06:58:32;;;;;;;7.80;4.40;;;1.30;99.90;;;;;;4861067;29;20532;-87
2021/03/20 07:01:01;;;;;;;5.10;4.60;;;1.50;99.90;;;;;;4861695;29;20481;-88
2021/03/20 07:03:35;;;;;;;5.73;4.00;;;1.60;99.90;;;;;;4861736;29;20453;-85
2021/03/20 07:06:27;;;;;;;5.00;3.73;;;1.60;99.90;;;;;;4859868;29;20477;-85
2021/03/20 07:08:59;;;;;;;4.10;3.60;;;1.60;99.90;;;;;;4859922;29;20452;-86
2021/03/20 07:11:31;;;;;;;18.30;9.93;;;1.60;99.90;;;;;;4860515;29;20462;-86
2021/03/20 07:14:00;;;;;;;33.90;28.03;;;1.70;99.90;;;;;;4862978;29;20497;-87
2021/03/20 07:16:28;;;;;;;6.93;4.00;;;1.90;99.90;;;;;;4872708;29;20879;-89
2021/03/20 07:18:58;;;;;;;6.37;3.33;;;1.70;99.90;;;;;;4873922;29;20473;-87
2021/03/20 07:21:35;;;;;;;2.87;2.63;;;1.50;99.90;;;;;;4859345;29;20437;-85
2021/03/20 07:24:18;;;;;;;3.50;3.20;;;1.40;99.90;;;;;;4854831;29;20552;-86
2021/03/20 07:26:57;;;;;;;5.07;3.43;;;1.40;99.90;;;;;;4857525;29;20789;-86
2021/03/20 07:29:45;;;;;;;3.43;3.13;;;1.80;99.90;;;;;;4872143;29;20463;-85
2021/03/20 07:32:43;;;;;;;3.03;2.80;;;1.70;99.90;;;;;;4856298;29;20781;-86
2021/03/20 07:35:24;;;;;;;3.60;3.30;;;1.80;99.90;;;;;;4866373;29;20520;-85
2021/03/20 07:37:53;;;;;;;3.33;3.03;;;1.80;99.90;;;;;;4855774;29;20863;-85
2021/03/20 07:40:19;;;;;;;4.40;3.10;;;1.70;99.90;;;;;;4860281;29;20466;-85
2021/03/20 07:42:46;;;;;;;4.30;2.63;;;1.70;99.90;;;;;;4857745;29;20449;-85
2021/03/20 07:45:18;;;;;;;4.20;3.17;;;1.60;99.90;;;;;;4859379;29;20240;-86
2021/03/20 07:48:04;;;;;;;3.03;2.70;;;1.50;99.90;;;;;;4859449;29;20452;-85
2021/03/20 07:51:05;;;;;;;3.60;3.30;;;1.50;99.50;;;;;;4857037;29;20866;-85
2021/03/20 07:53:38;;;;;;;4.27;3.40;;;1.30;99.90;;;;;;4868770;29;20457;-82
2021/03/20 07:56:08;;;;;;;5.23;3.50;;;1.40;99.90;;;;;;4855547;29;20485;-86
2021/03/20 07:58:37;;;;;;;3.17;2.87;;;1.40;99.90;;;;;;4867675;29;20441;-83
2021/03/20 08:01:07;;;;;;;3.70;3.07;;;1.50;99.50;;;;;;4857090;29;20847;-83
2021/03/20 08:03:57;;;;;;;4.17;3.40;;;1.60;98.60;;;;;;4858685;29;20473;-83
2021/03/20 08:06:40;;;;;;;4.20;3.30;;;1.50;99.10;;;;;;4860237;29;20468;-84
2021/03/20 08:09:18;;;;;;;3.97;3.57;;;1.40;99.60;;;;;;4858393;29;20552;-85
2021/03/20 08:11:45;;;;;;;3.50;3.20;;;1.80;99.40;;;;;;4869370;29;20457;-83
2021/03/20 08:14:18;;;;;;;3.90;3.57;;;2.30;98.80;;;;;;4857322;29;20462;-83
2021/03/20 08:16:44;;;;;;;3.43;3.13;;;2.50;97.20;;;;;;4851175;29;20474;-83
2021/03/20 08:19:20;;;;;;;4.20;3.80;;;2.10;97.20;;;;;;4856404;29;20453;-84
2021/03/20 08:21:54;;;;;;;4.03;3.43;;;2.00;97.90;;;;;;4856842;29;20218;-82
2021/03/20 08:24:57;;;;;;;3.23;2.93;;;2.20;97.40;;;;;;4872770;29;20453;-80
2021/03/20 08:27:41;;;;;;;3.23;2.97;;;2.70;97.00;;;;;;4868745;29;20453;-81
2021/03/20 08:30:23;;;;;;;4.07;3.50;;;2.90;95.90;;;;;;4856671;29;20449;-81
2021/03/20 08:33:23;;;;;;;4.77;3.87;;;2.70;96.70;;;;;;4857340;29;20464;-81
2021/03/20 08:36:26;;;;;;;3.37;3.07;;;2.80;96.20;;;;;;4855074;29;20967;-81
2021/03/20 08:39:03;;;;;;;4.23;3.40;;;2.80;96.00;;;;;;4856836;29;20441;-81
2021/03/20 08:41:36;;;;;;;6.50;3.50;;;2.60;96.00;;;;;;4858333;29;20891;-81
2021/03/20 08:44:17;;;;;;;4.20;3.40;;;2.40;94.90;;;;;;4855008;29;20465;-80
2021/03/20 08:47:15;;;;;;;3.50;3.20;;;2.20;95.60;;;;;;4870911;29;20541;-81
2021/03/20 08:49:50;;;;;;;3.47;3.17;;;2.20;94.80;;;;;;4840437;29;20823;-81
2021/03/20 08:52:47;;;;;;;2.80;2.60;;;2.30;95.50;;;;;;4868685;29;20512;-81
2021/03/20 08:55:37;;;;;;;5.90;3.10;;;2.50;95.50;;;;;;4854428;29;20843;-81
2021/03/20 08:58:03;;;;;;;4.13;3.00;;;2.90;96.40;;;;;;4854571;29;20492;-81
2021/03/20 09:00:40;;;;;;;3.27;3.00;;;3.80;97.20;;;;;;4857309;29;20602;-81
2021/03/20 09:03:12;;;;;;;3.67;3.37;;;4.60;94.50;;;;;;4858106;29;20329;-80
2021/03/20 09:05:46;;;;;;;6.17;3.80;;;5.10;91.60;;;;;;4854843;29;20485;-81
2021/03/20 09:08:34;;;;;;;3.20;2.90;;;5.60;89.10;;;;;;4858642;29;20500;-80
2021/03/20 09:11:11;;;;;;;3.20;3.00;;;5.90;81.50;;;;;;4858943;29;20453;-80
2021/03/20 09:14:08;;;;;;;3.13;2.77;;;5.70;73.40;;;;;;4875200;29;20481;-81
2021/03/20 09:16:43;;;;;;;2.77;2.57;;;5.30;77.60;;;;;;4858605;29;20819;-81
2021/03/20 09:19:17;;;;;;;5.00;2.50;;;4.50;72.40;;;;;;4860839;29;20460;-81
2021/03/20 09:21:43;;;;;;;3.10;2.70;;;3.90;75.20;;;;;;4863274;29;20460;-82
2021/03/20 09:24:16;;;;;;;2.80;2.60;;;3.90;75.90;;;;;;4858197;29;20446;-81
2021/03/20 09:26:59;;;;;;;3.30;2.40;;;4.40;74.40;;;;;;4864192;29;20568;-82
2021/03/20 09:29:35;;;;;;;3.77;2.73;;;4.60;68.00;;;;;;4859402;29;20535;-82
2021/03/20 09:32:01;;;;;;;4.67;2.70;;;4.50;74.20;;;;;;4859916;29;20462;-82
2021/03/20 09:34:33;;;;;;;2.10;2.00;;;4.40;71.50;;;;;;4859703;29;20472;-84
2021/03/20 09:37:04;;;;;;;2.27;2.17;;;4.20;68.40;;;;;;4874300;29;20216;-84
2021/03/20 09:39:42;;;;;;;2.13;2.03;;;4.50;70.30;;;;;;4858927;29;20813;-81
2021/03/20 09:42:32;;;;;;;2.67;2.47;;;4.30;70.60;;;;;;4862679;29;20469;-81
2021/03/20 09:45:04;;;;;;;2.10;1.90;;;4.30;65.30;;;;;;4859512;29;20592;-81
2021/03/20 09:47:47;;;;;;;2.27;2.10;;;4.50;62.10;;;;;;4861535;29;20919;-81
2021/03/20 09:50:19;;;;;;;3.17;2.33;;;4.80;67.80;;;;;;4873672;29;21003;-82
2021/03/20 09:53:06;;;;;;;2.50;2.30;;;5.30;59.20;;;;;;4872843;29;20486;-81
2021/03/20 09:55:34;;;;;;;1.90;1.80;;;5.70;60.70;;;;;;4858545;29;20487;-81
2021/03/20 09:58:02;;;;;;;1.83;1.70;;;5.30;57.60;;;;;;4863784;29;20552;-81
2021/03/20 10:00:59;;;;;;;2.10;1.43;;;5.10;57.20;;;;;;4861741;29;20465;-81
2021/03/20 10:04:00;;;;;;;1.83;1.73;;;5.80;57.90;;;;;;4861081;29;20453;-80
2021/03/20 10:06:26;;;;;;;2.17;2.07;;;6.60;57.70;;;;;;4852775;29;20457;-80
2021/03/20 10:09:03;;;;;;;1.50;1.40;;;6.60;57.00;;;;;;4861522;29;20508;-81
2021/03/20 10:11:32;;;;;;;2.07;1.87;;;6.90;59.60;;;;;;4861453;29;20921;-81
2021/03/20 10:13:59;;;;;;;2.07;1.87;;;7.20;51.10;;;;;;4856177;29;20452;-81
2021/03/20 10:16:28;;;;;;;2.30;2.10;;;7.30;51.10;;;;;;4859968;29;20477;-80
2021/03/20 10:19:06;;;;;;;2.50;1.73;;;7.60;49.80;;;;;;4861519;29;20452;-80
2021/03/20 10:21:32;;;;;;;2.27;2.07;;;6.80;47.00;;;;;;4859703;29;20503;-80
2021/03/20 10:24:13;;;;;;;4.40;1.87;;;6.00;45.70;;;;;;4860604;29;20446;-79
2021/03/20 10:26:43;;;;;;;1.90;1.80;;;5.70;47.80;;;;;;4870888;29;20210;-80
2021/03/20 10:29:18;;;;;;;2.43;2.23;;;5.90;49.50;;;;;;4859251;29;20548;-80
2021/03/20 10:31:50;;;;;;;1.73;1.63;;;5.70;45.90;;;;;;4861487;29;20849;-80
2021/03/20 10:34:25;;;;;;;2.13;1.70;;;5.60;52.00;;;;;;4862530;29;20446;-80
2021/03/20 10:37:03;;;;;;;1.53;1.47;;;6.20;53.50;;;;;;4858991;29;20457;-80
2021/03/20 10:39:39;;;;;;;2.20;1.60;;;6.90;53.10;;;;;;4861077;29;20456;-80
2021/03/20 10:42:14;;;;;;;1.83;1.67;;;7.20;50.40;;;;;;4858181;29;21066;-81
2021/03/20 10:44:43;;;;;;;2.13;1.80;;;7.60;49.70;;;;;;4860882;29;20469;-81
2021/03/20 10:47:11;;;;;;;1.90;1.80;;;8.10;51.90;;;;;;4864347;29;20443;-80
2021/03/20 10:49:42;;;;;;;1.90;1.80;;;8.50;49.70;;;;;;4862002;29;20472;-81
2021/03/20 10:52:32;;;;;;;1.57;1.47;;;9.00;45.20;;;;;;4861684;29;20934;-81
2021/03/20 10:55:03;;;;;;;2.10;1.90;;;9.00;45.70;;;;;;4860269;29;20521;-82
2021/03/20 10:57:31;;;;;;;2.97;1.90;;;9.20;47.90;;;;;;4857823;29;20451;-82
2021/03/20 10:59:57;;;;;;;1.93;1.83;;;9.50;43.80;;;;;;4860594;29;20851;-81
2021/03/20 11:02:28;;;;;;;4.00;2.10;;;9.40;46.40;;;;;;4854703;29;20796;-82
2021/03/20 11:05:13;;;;;;;1.80;1.70;;;9.30;45.70;;;;;;4858195;29;20451;-82
2021/03/20 11:08:02;;;;;;;2.30;2.10;;;9.30;43.90;;;;;;4871212;29;20550;-82
2021/03/20 11:10:42;;;;;;;2.20;2.00;;;9.50;44.30;;;;;;4857415;29;20961;-82
2021/03/20 11:13:16;;;;;;;1.93;1.80;;;10.00;40.30;;;;;;4872627;29;20467;-83
2021/03/20 11:15:45;;;;;;;1.90;1.80;;;9.20;40.60;;;;;;4871439;29;20883;-82
2021/03/20 11:18:26;;;;;;;1.90;1.80;;;8.30;40.80;;;;;;4858141;29;20452;-82
2021/03/20 11:20:52;;;;;;;1.73;1.63;;;7.70;42.70;;;;;;4860709;29;20541;-81
2021/03/20 11:23:37;;;;;;;1.90;1.73;;;6.80;41.00;;;;;;4871123;29;20522;-82
2021/03/20 11:26:23;;;;;;;1.47;1.37;;;6.10;41.60;;;;;;4856961;29;20203;-82
2021/03/20 11:28:49;;;;;;;1.80;1.70;;;6.80;47.20;;;;;;4872616;29;20459;-81
2021/03/20 11:31:16;;;;;;;3.10;1.73;;;7.50;45.20;;;;;;4858515;29;20766;-82
2021/03/20 11:33:44;;;;;;;2.10;1.90;;;7.90;44.20;;;;;;4856846;29;20446;-82
2021/03/20 11:36:17;;;;;;;1.80;1.70;;;8.30;43.00;;;;;;4859362;29;22824;-82
2021/03/20 11:38:43;;;;;;;1.97;1.80;;;8.30;43.60;;;;;;4854264;29;20810;-81
2021/03/20 11:41:09;;;;;;;1.93;1.60;;;8.50;45.20;;;;;;4857214;29;20453;-81
2021/03/20 11:43:35;;;;;;;2.00;1.80;;;8.60;44.40;;;;;;4860905;29;20445;-82
2021/03/20 11:46:32;;;;;;;2.20;2.00;;;8.40;38.10;;;;;;4858912;29;20199;-81
2021/03/20 11:49:04;;;;;;;2.87;2.03;;;8.20;40.40;;;;;;4871406;29;20189;-81
2021/03/20 11:51:45;;;;;;;3.40;2.27;;;8.60;41.00;;;;;;4873520;29;20536;-83
2021/03/20 11:54:31;;;;;;;1.90;1.80;;;8.90;43.50;;;;;;4855652;29;23771;-85
2021/03/20 11:57:04;;;;;;;2.63;2.43;;;9.40;44.10;;;;;;4872080;29;20482;-84
2021/03/20 11:59:30;;;;;;;1.87;1.77;;;9.00;41.20;;;;;;4862265;29;20964;-85
2021/03/20 12:01:56;;;;;;;2.40;1.70;;;8.80;41.80;;;;;;4836705;29;686604;-84
2021/03/20 12:04:25;;;;;;;1.80;1.70;;;8.90;42.70;;;;;;4861711;29;20193;-85
2021/03/20 12:07:12;;;;;;;1.77;1.60;;;8.30;42.90;;;;;;4857355;29;20448;-84
2021/03/20 12:09:37;;;;;;;3.00;1.73;;;8.20;42.40;;;;;;4855875;29;20453;-84
2021/03/20 12:12:05;;;;;;;3.73;1.90;;;8.30;42.00;;;;;;4861614;29;20453;-83
2021/03/20 12:14:35;;;;;;;2.10;1.90;;;8.70;41.60;;;;;;4856750;29;20469;-83
2021/03/20 12:17:23;;;;;;;2.03;1.93;;;8.80;39.90;;;;;;4859532;29;21009;-84
2021/03/20 12:20:07;;;;;;;6.83;2.20;;;7.70;39.70;;;;;;4853962;29;20499;-84
2021/03/20 12:22:58;;;;;;;4.63;2.33;;;6.80;39.00;;;;;;4872362;29;20456;-80
2021/03/20 12:25:45;;;;;;;2.23;1.90;;;7.00;42.20;;;;;;4874477;29;20459;-83
2021/03/20 12:28:32;;;;;;;2.07;1.97;;;7.70;42.80;;;;;;4860570;29;20517;-82
2021/03/20 12:31:13;;;;;;;2.13;1.93;;;7.70;39.80;;;;;;4861044;29;20457;-82
2021/03/20 12:34:08;;;;;;;1.90;1.80;;;7.70;41.40;;;;;;4861681;29;20778;-82
2021/03/20 12:36:43;;;;;;;1.63;1.47;;;7.50;41.60;;;;;;4862327;29;20488;-81
2021/03/20 12:39:15;;;;;;;2.27;2.07;;;8.20;42.10;;;;;;4863110;29;20756;-81
2021/03/20 12:41:43;;;;;;;1.80;1.70;;;8.50;38.00;;;;;;4857426;29;20473;-81
2021/03/20 12:44:15;;;;;;;2.57;1.47;;;8.60;36.90;;;;;;4858986;29;20485;-80
2021/03/20 12:46:46;;;;;;;2.10;2.00;;;8.60;37.60;;;;;;4858938;29;20979;-80
2021/03/20 12:49:25;;;;;;;1.60;1.47;;;8.20;40.20;;;;;;4860114;29;20484;-81
2021/03/20 12:51:57;;;;;;;2.93;2.37;;;8.70;41.20;;;;;;4872832;29;20455;-82
2021/03/20 12:54:26;;;;;;;1.90;1.60;;;9.40;39.80;;;;;;4856944;29;20792;-81
2021/03/20 12:56:52;;;;;;;2.13;1.93;;;10.00;41.50;;;;;;4857921;29;20471;-82
2021/03/20 12:59:18;;;;;;;2.93;2.63;;;9.90;40.30;;;;;;4859851;29;20496;-81
2021/03/20 13:01:44;;;;;;;2.30;2.10;;;10.00;41.00;;;;;;4859724;29;20478;-82
2021/03/20 13:04:15;;;;;;;2.60;2.40;;;10.30;37.80;;;;;;4855846;29;20809;-82
2021/03/20 13:06:41;;;;;;;2.47;2.27;;;9.50;35.40;;;;;;4857124;29;20235;-81
2021/03/20 13:09:06;;;;;;;2.83;2.40;;;9.20;38.30;;;;;;4868543;29;20463;-82
2021/03/20 13:11:32;;;;;;;2.20;2.00;;;9.00;39.80;;;;;;4875699;29;20464;-81
2021/03/20 13:14:00;;;;;;;2.50;2.30;;;8.40;38.20;;;;;;4858735;29;20691;-81
2021/03/20 13:16:26;;;;;;;3.33;2.50;;;8.70;40.00;;;;;;4874157;29;20864;-81
2021/03/20 13:18:52;;;;;;;1.90;1.80;;;8.30;39.40;;;;;;4855576;29;20445;-81
2021/03/20 13:21:18;;;;;;;2.50;1.63;;;8.50;40.60;;;;;;4854742;29;20880;-81
2021/03/20 13:23:43;;;;;;;1.93;1.83;;;9.40;41.70;;;;;;4858187;29;20193;-82
2021/03/20 13:26:09;;;;;;;2.20;2.00;;;10.00;39.70;;;;;;4870546;29;20457;-82
2021/03/20 13:28:35;;;;;;;1.77;1.67;;;10.70;39.00;;;;;;4855306;29;20207;-81
2021/03/20 13:31:00;;;;;;;2.77;2.27;;;10.70;37.70;;;;;;4855649;29;20211;-82
2021/03/20 13:33:26;;;;;;;2.80;2.47;;;10.30;39.10;;;;;;4857915;29;20216;-82
2021/03/20 13:35:52;;;;;;;3.73;2.70;;;10.70;38.20;;;;;;4860177;29;20222;-83
2021/03/20 13:38:18;;;;;;;3.27;2.97;;;11.20;38.70;;;;;;4858691;29;20845;-83
2021/03/20 13:40:44;;;;;;;2.80;2.60;;;12.20;33.30;;;;;;4861629;29;20201;-82
2021/03/20 13:43:11;;;;;;;2.23;2.03;;;13.10;33.30;;;;;;4860151;29;20441;-81